sensor_id;sensor_type;location;lat;lon;timestamp;temperature;humidity
50570;DHT22;36525;49.398;7.614;2024-02-04T00:02:10;7.60;99.90
50570;DHT22;36525;49.398;7.614;2024-02-04T00:04:40;7.60;99.90
50570;DHT22;36525;49.398;7.614;2024-02-04T00:07:08;7.60;99.90
50570;DHT22;36525;49.398;7.614;2024-02-04T00:09:34;7.60;99.90
50570;DHT22;36525;49.398;7.614;2024-02-04T00:12:03;7.50;99.90
50570;DHT22;36525;49.398;7.614;2024-02-04T00:14:30;7.50;99.90
50570;DHT22;36525;49.398;7.614;2024-02-04T00:16:58;7.50;99.90
50570;DHT22;36525;49.398;7.614;2024-02-04T00:19:25;7.50;99.90
50570;DHT22;36525;49.398;7.614;2024-02-04T00:21:53;7.50;99.90
50570;DHT22;36525;49.398;7.614;2024-02-04T00:24:20;7.50;99.90
50570;DHT22;36525;49.398;7.614;2024-02-04T00:26:47;7.40;99.90
50570;DHT22;36525;49.398;7.614;2024-02-04T00:29:14;7.50;99.90
50570;DHT22;36525;49.398;7.614;2024-02-04T00:31:41;7.50;99.90
50570;DHT22;36525;49.398;7.614;2024-02-04T00:34:07;7.50;99.90
50570;DHT22;36525;49.398;7.614;2024-02-04T00:36:35;7.40;99.90
50570;DHT22;36525;49.398;7.614;2024-02-04T00:39:02;7.40;99.90
50570;DHT22;36525;49.398;7.614;2024-02-04T00:41:28;7.40;99.90
50570;DHT22;36525;49.398;7.614;2024-02-04T00:43:55;7.40;99.90
50570;DHT22;36525;49.398;7.614;2024-02-04T00:46:22;7.40;99.90
50570;DHT22;36525;49.398;7.614;2024-02-04T00:48:49;7.40;99.90
50570;DHT22;36525;49.398;7.614;2024-02-04T00:51:16;7.40;99.90
50570;DHT22;36525;49.398;7.614;2024-02-04T00:53:43;7.40;99.90
50570;DHT22;36525;49.398;7.614;2024-02-04T00:56:10;7.40;99.90
50570;DHT22;36525;49.398;7.614;2024-02-04T00:58:38;7.30;99.90
50570;DHT22;36525;49.398;7.614;2024-02-04T01:01:05;7.30;99.90
50570;DHT22;36525;49.398;7.614;2024-02-04T01:03:32;7.30;99.90
50570;DHT22;36525;49.398;7.614;2024-02-04T01:06:00;7.40;99.90
50570;DHT22;36525;49.398;7.614;2024-02-04T01:08:27;7.40;99.90
50570;DHT22;36525;49.398;7.614;2024-02-04T01:10:53;7.40;99.90
50570;DHT22;36525;49.398;7.614;2024-02-04T01:13:20;7.40;99.90
50570;DHT22;36525;49.398;7.614;2024-02-04T01:15:47;7.40;99.90
50570;DHT22;36525;49.398;7.614;2024-02-04T01:18:14;7.40;99.90
50570;DHT22;36525;49.398;7.614;2024-02-04T01:20:41;7.40;99.90
50570;DHT22;36525;49.398;7.614;2024-02-04T01:23:08;7.50;99.90
50570;DHT22;36525;49.398;7.614;2024-02-04T01:25:35;7.40;99.90
50570;DHT22;36525;49.398;7.614;2024-02-04T01:28:06;7.40;99.90
50570;DHT22;36525;49.398;7.614;2024-02-04T01:30:32;7.40;99.90
50570;DHT22;36525;49.398;7.614;2024-02-04T01:32:59;7.40;99.90
50570;DHT22;36525;49.398;7.614;2024-02-04T01:35:26;7.40;99.90
50570;DHT22;36525;49.398;7.614;2024-02-04T01:37:53;7.40;99.90
50570;DHT22;36525;49.398;7.614;2024-02-04T01:40:20;7.30;99.90
50570;DHT22;36525;49.398;7.614;2024-02-04T01:42:47;7.40;99.90
50570;DHT22;36525;49.398;7.614;2024-02-04T01:45:14;7.40;99.90
50570;DHT22;36525;49.398;7.614;2024-02-04T01:47:41;7.40;99.90
50570;DHT22;36525;49.398;7.614;2024-02-04T01:50:08;7.40;99.90
50570;DHT22;36525;49.398;7.614;2024-02-04T01:52:36;7.30;99.90
50570;DHT22;36525;49.398;7.614;2024-02-04T01:55:04;7.30;99.90
50570;DHT22;36525;49.398;7.614;2024-02-04T01:57:32;7.30;99.90
50570;DHT22;36525;49.398;7.614;2024-02-04T02:00:02;7.40;99.90
50570;DHT22;36525;49.398;7.614;2024-02-04T02:02:30;7.40;99.90
50570;DHT22;36525;49.398;7.614;2024-02-04T02:05:00;7.40;99.90
50570;DHT22;36525;49.398;7.614;2024-02-04T02:07:27;7.40;99.90
50570;DHT22;36525;49.398;7.614;2024-02-04T02:09:54;7.40;99.90
50570;DHT22;36525;49.398;7.614;2024-02-04T02:12:25;7.40;99.90
50570;DHT22;36525;49.398;7.614;2024-02-04T02:14:58;7.40;99.90
50570;DHT22;36525;49.398;7.614;2024-02-04T02:18:18;7.40;99.90
50570;DHT22;36525;49.398;7.614;2024-02-04T02:20:30;7.30;99.90
50570;DHT22;36525;49.398;7.614;2024-02-04T02:23:06;7.30;99.90
50570;DHT22;36525;49.398;7.614;2024-02-04T02:25:35;7.30;99.90
50570;DHT22;36525;49.398;7.614;2024-02-04T02:28:03;7.40;99.90
50570;DHT22;36525;49.398;7.614;2024-02-04T02:30:30;7.40;99.90
50570;DHT22;36525;49.398;7.614;2024-02-04T02:32:57;7.30;99.90
50570;DHT22;36525;49.398;7.614;2024-02-04T02:35:24;7.30;99.90
50570;DHT22;36525;49.398;7.614;2024-02-04T02:43:15;7.30;99.90
50570;DHT22;36525;49.398;7.614;2024-02-04T02:45:59;7.30;99.90
50570;DHT22;36525;49.398;7.614;2024-02-04T02:48:27;7.30;99.90
50570;DHT22;36525;49.398;7.614;2024-02-04T02:50:54;7.30;99.90
50570;DHT22;36525;49.398;7.614;2024-02-04T02:53:21;7.30;99.90
50570;DHT22;36525;49.398;7.614;2024-02-04T02:55:56;7.30;99.90
50570;DHT22;36525;49.398;7.614;2024-02-04T02:58:23;7.30;99.90
50570;DHT22;36525;49.398;7.614;2024-02-04T03:00:50;7.30;99.90
50570;DHT22;36525;49.398;7.614;2024-02-04T03:03:17;7.30;99.90
50570;DHT22;36525;49.398;7.614;2024-02-04T03:05:44;7.30;99.90
50570;DHT22;36525;49.398;7.614;2024-02-04T03:08:11;7.30;99.90
50570;DHT22;36525;49.398;7.614;2024-02-04T03:10:38;7.30;99.90
50570;DHT22;36525;49.398;7.614;2024-02-04T03:13:04;7.30;99.90
50570;DHT22;36525;49.398;7.614;2024-02-04T03:15:32;7.30;99.90
50570;DHT22;36525;49.398;7.614;2024-02-04T03:17:59;7.30;99.90
50570;DHT22;36525;49.398;7.614;2024-02-04T03:20:26;7.30;99.90
50570;DHT22;36525;49.398;7.614;2024-02-04T03:22:52;7.30;99.90
50570;DHT22;36525;49.398;7.614;2024-02-04T03:25:21;7.40;99.90
50570;DHT22;36525;49.398;7.614;2024-02-04T03:27:50;7.30;99.90
50570;DHT22;36525;49.398;7.614;2024-02-04T03:30:17;7.40;99.90
50570;DHT22;36525;49.398;7.614;2024-02-04T03:32:44;7.40;99.90
50570;DHT22;36525;49.398;7.614;2024-02-04T03:35:10;7.30;99.90
50570;DHT22;36525;49.398;7.614;2024-02-04T03:37:37;7.30;99.90
50570;DHT22;36525;49.398;7.614;2024-02-04T03:40:04;7.40;99.90
50570;DHT22;36525;49.398;7.614;2024-02-04T03:42:32;7.30;99.90
50570;DHT22;36525;49.398;7.614;2024-02-04T03:44:58;7.30;99.90
50570;DHT22;36525;49.398;7.614;2024-02-04T03:47:29;7.30;99.90
50570;DHT22;36525;49.398;7.614;2024-02-04T03:49:55;7.30;99.90
50570;DHT22;36525;49.398;7.614;2024-02-04T03:52:22;7.30;99.90
50570;DHT22;36525;49.398;7.614;2024-02-04T03:54:49;7.40;99.90
50570;DHT22;36525;49.398;7.614;2024-02-04T03:57:16;7.40;99.90
50570;DHT22;36525;49.398;7.614;2024-02-04T03:59:46;7.30;99.90
50570;DHT22;36525;49.398;7.614;2024-02-04T04:02:13;7.40;99.90
50570;DHT22;36525;49.398;7.614;2024-02-04T04:04:40;7.40;99.90
50570;DHT22;36525;49.398;7.614;2024-02-04T04:07:14;7.30;99.90
50570;DHT22;36525;49.398;7.614;2024-02-04T04:09:41;7.30;99.90
50570;DHT22;36525;49.398;7.614;2024-02-04T04:12:08;7.40;99.90
50570;DHT22;36525;49.398;7.614;2024-02-04T04:14:35;7.30;99.90
50570;DHT22;36525;49.398;7.614;2024-02-04T04:17:01;7.30;99.90
50570;DHT22;36525;49.398;7.614;2024-02-04T04:19:28;7.40;99.90
50570;DHT22;36525;49.398;7.614;2024-02-04T04:21:55;7.30;99.90
50570;DHT22;36525;49.398;7.614;2024-02-04T04:24:23;7.30;99.90
50570;DHT22;36525;49.398;7.614;2024-02-04T04:26:50;7.30;99.90
50570;DHT22;36525;49.398;7.614;2024-02-04T04:29:17;7.30;99.90
50570;DHT22;36525;49.398;7.614;2024-02-04T04:31:44;7.30;99.90
50570;DHT22;36525;49.398;7.614;2024-02-04T04:34:11;7.30;99.90
50570;DHT22;36525;49.398;7.614;2024-02-04T04:36:38;7.30;99.90
50570;DHT22;36525;49.398;7.614;2024-02-04T04:39:04;7.30;99.90
50570;DHT22;36525;49.398;7.614;2024-02-04T04:41:31;7.40;99.90
50570;DHT22;36525;49.398;7.614;2024-02-04T04:43:58;7.30;99.90
50570;DHT22;36525;49.398;7.614;2024-02-04T04:46:25;7.30;99.90
50570;DHT22;36525;49.398;7.614;2024-02-04T04:48:52;7.30;99.90
50570;DHT22;36525;49.398;7.614;2024-02-04T04:51:19;7.30;99.90
50570;DHT22;36525;49.398;7.614;2024-02-04T04:53:46;7.30;99.90
50570;DHT22;36525;49.398;7.614;2024-02-04T04:56:13;7.30;99.90
50570;DHT22;36525;49.398;7.614;2024-02-04T04:58:39;7.20;99.90
50570;DHT22;36525;49.398;7.614;2024-02-04T05:01:06;7.30;99.90
50570;DHT22;36525;49.398;7.614;2024-02-04T05:03:33;7.30;99.90
50570;DHT22;36525;49.398;7.614;2024-02-04T05:06:00;7.30;99.90
50570;DHT22;36525;49.398;7.614;2024-02-04T05:08:27;7.30;99.90
50570;DHT22;36525;49.398;7.614;2024-02-04T05:10:54;7.20;99.90
50570;DHT22;36525;49.398;7.614;2024-02-04T05:13:21;7.20;99.90
50570;DHT22;36525;49.398;7.614;2024-02-04T05:15:48;7.20;99.90
50570;DHT22;36525;49.398;7.614;2024-02-04T05:18:15;7.20;99.90
50570;DHT22;36525;49.398;7.614;2024-02-04T05:20:42;7.10;99.90
50570;DHT22;36525;49.398;7.614;2024-02-04T05:23:10;7.20;99.90
50570;DHT22;36525;49.398;7.614;2024-02-04T05:25:37;7.10;99.90
50570;DHT22;36525;49.398;7.614;2024-02-04T05:28:04;7.20;99.90
50570;DHT22;36525;49.398;7.614;2024-02-04T05:30:31;7.10;99.90
50570;DHT22;36525;49.398;7.614;2024-02-04T05:32:58;7.10;99.90
50570;DHT22;36525;49.398;7.614;2024-02-04T05:35:24;7.10;99.90
50570;DHT22;36525;49.398;7.614;2024-02-04T05:37:51;7.10;99.90
50570;DHT22;36525;49.398;7.614;2024-02-04T05:40:18;7.10;99.90
50570;DHT22;36525;49.398;7.614;2024-02-04T05:42:47;7.10;99.90
50570;DHT22;36525;49.398;7.614;2024-02-04T05:45:14;7.10;99.90
50570;DHT22;36525;49.398;7.614;2024-02-04T05:47:41;7.10;99.90
50570;DHT22;36525;49.398;7.614;2024-02-04T05:50:08;7.00;99.90
50570;DHT22;36525;49.398;7.614;2024-02-04T05:52:35;7.00;99.90
50570;DHT22;36525;49.398;7.614;2024-02-04T05:55:02;7.10;99.90
50570;DHT22;36525;49.398;7.614;2024-02-04T05:57:31;7.00;99.90
50570;DHT22;36525;49.398;7.614;2024-02-04T05:59:58;7.00;99.90
50570;DHT22;36525;49.398;7.614;2024-02-04T06:02:26;7.00;99.90
50570;DHT22;36525;49.398;7.614;2024-02-04T06:04:53;7.00;99.90
50570;DHT22;36525;49.398;7.614;2024-02-04T06:07:20;7.00;99.90
50570;DHT22;36525;49.398;7.614;2024-02-04T06:09:47;7.00;99.90
50570;DHT22;36525;49.398;7.614;2024-02-04T06:12:14;7.00;99.90
50570;DHT22;36525;49.398;7.614;2024-02-04T06:14:41;7.00;99.90
50570;DHT22;36525;49.398;7.614;2024-02-04T06:17:08;7.00;99.90
50570;DHT22;36525;49.398;7.614;2024-02-04T06:19:35;7.00;99.90
50570;DHT22;36525;49.398;7.614;2024-02-04T06:22:02;6.90;99.90
50570;DHT22;36525;49.398;7.614;2024-02-04T06:24:29;6.90;99.90
50570;DHT22;36525;49.398;7.614;2024-02-04T06:26:56;6.90;99.90
50570;DHT22;36525;49.398;7.614;2024-02-04T06:29:23;7.00;99.90
50570;DHT22;36525;49.398;7.614;2024-02-04T06:31:50;7.00;99.90
50570;DHT22;36525;49.398;7.614;2024-02-04T06:34:17;7.00;99.90
50570;DHT22;36525;49.398;7.614;2024-02-04T06:36:44;6.90;99.90
50570;DHT22;36525;49.398;7.614;2024-02-04T06:39:11;6.90;99.90
50570;DHT22;36525;49.398;7.614;2024-02-04T06:41:38;6.90;99.90
50570;DHT22;36525;49.398;7.614;2024-02-04T06:44:05;6.90;99.90
50570;DHT22;36525;49.398;7.614;2024-02-04T06:46:32;6.90;99.90
50570;DHT22;36525;49.398;7.614;2024-02-04T06:48:59;6.90;99.90
50570;DHT22;36525;49.398;7.614;2024-02-04T06:51:26;6.90;99.90
50570;DHT22;36525;49.398;7.614;2024-02-04T06:53:53;6.90;99.90
50570;DHT22;36525;49.398;7.614;2024-02-04T06:56:20;6.90;99.90
50570;DHT22;36525;49.398;7.614;2024-02-04T06:58:47;7.00;99.90
50570;DHT22;36525;49.398;7.614;2024-02-04T07:01:14;7.00;99.90
50570;DHT22;36525;49.398;7.614;2024-02-04T07:03:41;6.90;99.90
50570;DHT22;36525;49.398;7.614;2024-02-04T07:06:07;6.90;99.90
50570;DHT22;36525;49.398;7.614;2024-02-04T07:08:35;6.90;99.90
50570;DHT22;36525;49.398;7.614;2024-02-04T07:11:02;6.90;99.90
50570;DHT22;36525;49.398;7.614;2024-02-04T07:13:29;6.90;99.90
50570;DHT22;36525;49.398;7.614;2024-02-04T07:15:56;6.90;99.90
50570;DHT22;36525;49.398;7.614;2024-02-04T07:18:24;6.90;99.90
50570;DHT22;36525;49.398;7.614;2024-02-04T07:20:51;6.90;99.90
50570;DHT22;36525;49.398;7.614;2024-02-04T07:23:18;6.90;99.90
50570;DHT22;36525;49.398;7.614;2024-02-04T07:25:45;6.90;99.90
50570;DHT22;36525;49.398;7.614;2024-02-04T07:28:12;7.00;99.90
50570;DHT22;36525;49.398;7.614;2024-02-04T07:30:39;7.00;99.90
50570;DHT22;36525;49.398;7.614;2024-02-04T07:33:06;7.00;99.90
50570;DHT22;36525;49.398;7.614;2024-02-04T07:35:33;7.00;99.90
50570;DHT22;36525;49.398;7.614;2024-02-04T07:37:59;7.00;99.90
50570;DHT22;36525;49.398;7.614;2024-02-04T07:40:26;7.00;99.90
50570;DHT22;36525;49.398;7.614;2024-02-04T07:42:54;6.90;99.90
50570;DHT22;36525;49.398;7.614;2024-02-04T07:45:22;7.00;99.90
50570;DHT22;36525;49.398;7.614;2024-02-04T07:47:48;7.00;99.90
50570;DHT22;36525;49.398;7.614;2024-02-04T07:50:15;7.00;99.90
50570;DHT22;36525;49.398;7.614;2024-02-04T07:52:42;7.00;99.90
50570;DHT22;36525;49.398;7.614;2024-02-04T07:55:10;7.00;99.90
50570;DHT22;36525;49.398;7.614;2024-02-04T07:57:37;7.00;99.90
50570;DHT22;36525;49.398;7.614;2024-02-04T08:00:05;7.00;99.90
50570;DHT22;36525;49.398;7.614;2024-02-04T08:02:33;7.00;99.90
50570;DHT22;36525;49.398;7.614;2024-02-04T08:04:59;7.00;99.90
50570;DHT22;36525;49.398;7.614;2024-02-04T08:07:27;7.00;99.90
50570;DHT22;36525;49.398;7.614;2024-02-04T08:09:54;7.00;99.90
50570;DHT22;36525;49.398;7.614;2024-02-04T08:12:21;7.00;99.90
50570;DHT22;36525;49.398;7.614;2024-02-04T08:14:48;7.00;99.90
50570;DHT22;36525;49.398;7.614;2024-02-04T08:17:15;7.00;99.90
50570;DHT22;36525;49.398;7.614;2024-02-04T08:19:42;7.00;99.90
50570;DHT22;36525;49.398;7.614;2024-02-04T08:22:09;7.00;99.90
50570;DHT22;36525;49.398;7.614;2024-02-04T08:24:36;7.00;99.90
50570;DHT22;36525;49.398;7.614;2024-02-04T08:27:03;6.90;99.90
50570;DHT22;36525;49.398;7.614;2024-02-04T08:29:30;6.90;99.90
50570;DHT22;36525;49.398;7.614;2024-02-04T08:31:56;7.00;99.90
50570;DHT22;36525;49.398;7.614;2024-02-04T08:34:23;7.00;99.90
50570;DHT22;36525;49.398;7.614;2024-02-04T08:36:52;7.00;99.90
50570;DHT22;36525;49.398;7.614;2024-02-04T08:39:19;7.00;99.90
50570;DHT22;36525;49.398;7.614;2024-02-04T08:41:45;7.00;99.90
50570;DHT22;36525;49.398;7.614;2024-02-04T08:44:12;7.00;99.90
50570;DHT22;36525;49.398;7.614;2024-02-04T08:46:57;7.00;99.90
50570;DHT22;36525;49.398;7.614;2024-02-04T08:49:24;7.00;99.90
50570;DHT22;36525;49.398;7.614;2024-02-04T08:51:51;7.00;99.90
50570;DHT22;36525;49.398;7.614;2024-02-04T08:54:18;7.00;99.90
50570;DHT22;36525;49.398;7.614;2024-02-04T08:56:46;7.00;99.90
50570;DHT22;36525;49.398;7.614;2024-02-04T08:59:13;7.00;99.90
50570;DHT22;36525;49.398;7.614;2024-02-04T09:01:40;7.00;99.90
50570;DHT22;36525;49.398;7.614;2024-02-04T09:04:07;7.00;99.90
50570;DHT22;36525;49.398;7.614;2024-02-04T09:06:34;7.00;99.90
50570;DHT22;36525;49.398;7.614;2024-02-04T09:09:02;7.00;99.90
50570;DHT22;36525;49.398;7.614;2024-02-04T09:11:29;7.00;99.90
50570;DHT22;36525;49.398;7.614;2024-02-04T09:13:56;7.00;99.90
50570;DHT22;36525;49.398;7.614;2024-02-04T09:16:23;7.00;99.90
50570;DHT22;36525;49.398;7.614;2024-02-04T09:18:50;7.10;99.90
50570;DHT22;36525;49.398;7.614;2024-02-04T09:21:17;7.10;99.90
50570;DHT22;36525;49.398;7.614;2024-02-04T09:23:44;7.10;99.90
50570;DHT22;36525;49.398;7.614;2024-02-04T09:26:11;7.10;99.90
50570;DHT22;36525;49.398;7.614;2024-02-04T09:28:42;7.20;99.90
50570;DHT22;36525;49.398;7.614;2024-02-04T09:31:09;7.10;99.90
50570;DHT22;36525;49.398;7.614;2024-02-04T09:33:36;7.20;99.90
50570;DHT22;36525;49.398;7.614;2024-02-04T09:36:04;7.20;99.90
50570;DHT22;36525;49.398;7.614;2024-02-04T09:38:32;7.20;99.90
50570;DHT22;36525;49.398;7.614;2024-02-04T09:41:00;7.20;99.90
50570;DHT22;36525;49.398;7.614;2024-02-04T09:43:27;7.20;99.90
50570;DHT22;36525;49.398;7.614;2024-02-04T09:45:54;7.20;99.90
50570;DHT22;36525;49.398;7.614;2024-02-04T09:48:21;7.20;99.90
50570;DHT22;36525;49.398;7.614;2024-02-04T09:50:51;7.30;99.90
50570;DHT22;36525;49.398;7.614;2024-02-04T09:53:21;7.30;99.90
50570;DHT22;36525;49.398;7.614;2024-02-04T09:55:49;7.30;99.90
50570;DHT22;36525;49.398;7.614;2024-02-04T09:58:17;7.30;99.90
50570;DHT22;36525;49.398;7.614;2024-02-04T10:00:44;7.30;99.90
50570;DHT22;36525;49.398;7.614;2024-02-04T10:03:12;7.20;99.90
50570;DHT22;36525;49.398;7.614;2024-02-04T10:05:39;7.20;99.90
50570;DHT22;36525;49.398;7.614;2024-02-04T10:08:06;7.20;99.90
50570;DHT22;36525;49.398;7.614;2024-02-04T10:10:33;7.20;99.90
50570;DHT22;36525;49.398;7.614;2024-02-04T10:13:04;7.20;99.90
50570;DHT22;36525;49.398;7.614;2024-02-04T10:15:32;7.30;99.90
50570;DHT22;36525;49.398;7.614;2024-02-04T10:18:02;7.20;99.90
50570;DHT22;36525;49.398;7.614;2024-02-04T10:20:29;7.30;99.90
50570;DHT22;36525;49.398;7.614;2024-02-04T10:22:56;7.30;99.90
50570;DHT22;36525;49.398;7.614;2024-02-04T10:25:23;7.30;99.90
50570;DHT22;36525;49.398;7.614;2024-02-04T10:27:50;7.30;99.90
50570;DHT22;36525;49.398;7.614;2024-02-04T10:30:20;7.30;99.90
50570;DHT22;36525;49.398;7.614;2024-02-04T10:32:51;7.30;99.90
50570;DHT22;36525;49.398;7.614;2024-02-04T10:35:21;7.30;99.90
50570;DHT22;36525;49.398;7.614;2024-02-04T10:37:50;7.30;99.90
50570;DHT22;36525;49.398;7.614;2024-02-04T10:40:17;7.30;99.90
50570;DHT22;36525;49.398;7.614;2024-02-04T10:42:44;7.30;99.90
50570;DHT22;36525;49.398;7.614;2024-02-04T10:45:11;7.30;99.90
50570;DHT22;36525;49.398;7.614;2024-02-04T10:47:40;7.30;99.90
50570;DHT22;36525;49.398;7.614;2024-02-04T10:50:07;7.30;99.90
50570;DHT22;36525;49.398;7.614;2024-02-04T10:52:36;7.30;99.90
50570;DHT22;36525;49.398;7.614;2024-02-04T10:55:07;7.30;99.90
50570;DHT22;36525;49.398;7.614;2024-02-04T10:57:37;7.30;99.90
50570;DHT22;36525;49.398;7.614;2024-02-04T11:00:05;7.40;99.90
50570;DHT22;36525;49.398;7.614;2024-02-04T11:02:35;7.40;99.90
50570;DHT22;36525;49.398;7.614;2024-02-04T11:05:04;7.50;99.90
50570;DHT22;36525;49.398;7.614;2024-02-04T11:07:32;7.40;99.90
50570;DHT22;36525;49.398;7.614;2024-02-04T11:10:00;7.50;99.90
50570;DHT22;36525;49.398;7.614;2024-02-04T11:12:28;7.50;99.90
50570;DHT22;36525;49.398;7.614;2024-02-04T11:14:57;7.60;99.90
50570;DHT22;36525;49.398;7.614;2024-02-04T11:25:36;7.80;99.90
50570;DHT22;36525;49.398;7.614;2024-02-04T11:28:10;7.70;99.90
50570;DHT22;36525;49.398;7.614;2024-02-04T11:30:38;7.60;99.90
50570;DHT22;36525;49.398;7.614;2024-02-04T11:33:06;7.60;99.90
50570;DHT22;36525;49.398;7.614;2024-02-04T11:35:33;7.70;99.90
50570;DHT22;36525;49.398;7.614;2024-02-04T11:38:02;7.70;99.90
50570;DHT22;36525;49.398;7.614;2024-02-04T11:40:30;7.70;99.90
50570;DHT22;36525;49.398;7.614;2024-02-04T11:45:32;7.70;99.90
50570;DHT22;36525;49.398;7.614;2024-02-04T11:48:02;7.60;99.90
50570;DHT22;36525;49.398;7.614;2024-02-04T11:50:30;7.70;99.90
50570;DHT22;36525;49.398;7.614;2024-02-04T11:53:10;7.70;99.90
50570;DHT22;36525;49.398;7.614;2024-02-04T11:55:41;7.60;99.90
50570;DHT22;36525;49.398;7.614;2024-02-04T11:58:11;7.70;99.90
50570;DHT22;36525;49.398;7.614;2024-02-04T12:00:41;7.70;99.90
50570;DHT22;36525;49.398;7.614;2024-02-04T12:03:10;7.80;99.90
50570;DHT22;36525;49.398;7.614;2024-02-04T12:05:37;7.70;99.90
50570;DHT22;36525;49.398;7.614;2024-02-04T12:08:05;7.70;99.90
50570;DHT22;36525;49.398;7.614;2024-02-04T12:10:37;7.80;99.90
50570;DHT22;36525;49.398;7.614;2024-02-04T12:13:05;7.70;99.90
50570;DHT22;36525;49.398;7.614;2024-02-04T12:15:36;7.70;99.90
50570;DHT22;36525;49.398;7.614;2024-02-04T12:18:06;7.80;99.90
50570;DHT22;36525;49.398;7.614;2024-02-04T12:20:37;7.80;99.90
50570;DHT22;36525;49.398;7.614;2024-02-04T12:23:05;7.80;99.90
50570;DHT22;36525;49.398;7.614;2024-02-04T12:25:34;7.80;99.90
50570;DHT22;36525;49.398;7.614;2024-02-04T12:28:02;7.80;99.90
50570;DHT22;36525;49.398;7.614;2024-02-04T12:30:30;7.80;99.90
50570;DHT22;36525;49.398;7.614;2024-02-04T12:33:01;7.90;99.90
50570;DHT22;36525;49.398;7.614;2024-02-04T12:35:31;7.90;99.90
50570;DHT22;36525;49.398;7.614;2024-02-04T12:37:58;7.90;99.90
50570;DHT22;36525;49.398;7.614;2024-02-04T12:42:55;7.90;99.90
50570;DHT22;36525;49.398;7.614;2024-02-04T12:45:27;7.90;99.90
50570;DHT22;36525;49.398;7.614;2024-02-04T12:47:55;7.90;99.90
50570;DHT22;36525;49.398;7.614;2024-02-04T12:50:23;8.00;99.90
50570;DHT22;36525;49.398;7.614;2024-02-04T12:53:02;8.10;99.90
50570;DHT22;36525;49.398;7.614;2024-02-04T12:55:33;8.00;99.90
50570;DHT22;36525;49.398;7.614;2024-02-04T12:58:04;8.10;99.90
50570;DHT22;36525;49.398;7.614;2024-02-04T13:00:32;8.00;99.90
50570;DHT22;36525;49.398;7.614;2024-02-04T13:03:03;8.00;99.90
50570;DHT22;36525;49.398;7.614;2024-02-04T13:05:31;8.00;99.90
50570;DHT22;36525;49.398;7.614;2024-02-04T13:08:00;8.00;99.90
50570;DHT22;36525;49.398;7.614;2024-02-04T13:10:33;8.10;99.90
50570;DHT22;36525;49.398;7.614;2024-02-04T13:13:02;8.00;99.90
50570;DHT22;36525;49.398;7.614;2024-02-04T13:15:30;8.10;99.90
50570;DHT22;36525;49.398;7.614;2024-02-04T13:17:57;8.00;99.90
50570;DHT22;36525;49.398;7.614;2024-02-04T13:20:25;8.10;99.90
50570;DHT22;36525;49.398;7.614;2024-02-04T13:22:56;8.00;99.90
50570;DHT22;36525;49.398;7.614;2024-02-04T13:25:24;8.10;99.90
50570;DHT22;36525;49.398;7.614;2024-02-04T13:27:51;8.00;99.90
50570;DHT22;36525;49.398;7.614;2024-02-04T13:30:18;8.10;99.90
50570;DHT22;36525;49.398;7.614;2024-02-04T13:32:46;8.10;99.90
50570;DHT22;36525;49.398;7.614;2024-02-04T13:35:13;8.10;99.90
50570;DHT22;36525;49.398;7.614;2024-02-04T13:37:46;8.10;99.90
50570;DHT22;36525;49.398;7.614;2024-02-04T13:40:15;8.10;99.90
50570;DHT22;36525;49.398;7.614;2024-02-04T13:42:43;8.10;99.90
50570;DHT22;36525;49.398;7.614;2024-02-04T13:45:10;8.10;99.90
50570;DHT22;36525;49.398;7.614;2024-02-04T13:47:40;8.20;99.90
50570;DHT22;36525;49.398;7.614;2024-02-04T13:50:10;8.10;99.90
50570;DHT22;36525;49.398;7.614;2024-02-04T13:52:37;8.10;99.90
50570;DHT22;36525;49.398;7.614;2024-02-04T13:55:05;8.10;99.90
50570;DHT22;36525;49.398;7.614;2024-02-04T13:57:33;8.10;99.90
50570;DHT22;36525;49.398;7.614;2024-02-04T14:00:00;8.20;99.90
50570;DHT22;36525;49.398;7.614;2024-02-04T14:02:29;8.20;99.90
50570;DHT22;36525;49.398;7.614;2024-02-04T14:04:56;8.20;99.90
50570;DHT22;36525;49.398;7.614;2024-02-04T14:07:24;8.20;99.90
50570;DHT22;36525;49.398;7.614;2024-02-04T14:09:51;8.20;99.90
50570;DHT22;36525;49.398;7.614;2024-02-04T14:12:19;8.30;99.90
50570;DHT22;36525;49.398;7.614;2024-02-04T14:14:46;8.30;99.90
50570;DHT22;36525;49.398;7.614;2024-02-04T14:17:12;8.30;99.90
50570;DHT22;36525;49.398;7.614;2024-02-04T14:19:40;8.30;99.90
50570;DHT22;36525;49.398;7.614;2024-02-04T14:22:07;8.30;99.90
50570;DHT22;36525;49.398;7.614;2024-02-04T14:24:34;8.30;99.90
50570;DHT22;36525;49.398;7.614;2024-02-04T14:27:01;8.30;99.90
50570;DHT22;36525;49.398;7.614;2024-02-04T14:29:28;8.20;99.90
50570;DHT22;36525;49.398;7.614;2024-02-04T14:31:54;8.30;99.90
50570;DHT22;36525;49.398;7.614;2024-02-04T14:34:22;8.20;99.90
50570;DHT22;36525;49.398;7.614;2024-02-04T14:36:50;8.30;99.90
50570;DHT22;36525;49.398;7.614;2024-02-04T14:39:16;8.30;99.90
50570;DHT22;36525;49.398;7.614;2024-02-04T14:41:43;8.30;99.90
50570;DHT22;36525;49.398;7.614;2024-02-04T14:44:10;8.30;99.90
50570;DHT22;36525;49.398;7.614;2024-02-04T14:46:37;8.30;99.90
50570;DHT22;36525;49.398;7.614;2024-02-04T14:49:04;8.30;99.90
50570;DHT22;36525;49.398;7.614;2024-02-04T14:51:31;8.30;99.90
50570;DHT22;36525;49.398;7.614;2024-02-04T14:53:58;8.30;99.90
50570;DHT22;36525;49.398;7.614;2024-02-04T14:56:25;8.40;99.90
50570;DHT22;36525;49.398;7.614;2024-02-04T14:58:52;8.40;99.90
50570;DHT22;36525;49.398;7.614;2024-02-04T15:01:19;8.30;99.90
50570;DHT22;36525;49.398;7.614;2024-02-04T15:03:47;8.40;99.90
50570;DHT22;36525;49.398;7.614;2024-02-04T15:06:14;8.40;99.90
50570;DHT22;36525;49.398;7.614;2024-02-04T15:08:42;8.40;99.90
50570;DHT22;36525;49.398;7.614;2024-02-04T15:11:10;8.50;99.90
50570;DHT22;36525;49.398;7.614;2024-02-04T15:13:37;8.40;99.90
50570;DHT22;36525;49.398;7.614;2024-02-04T15:16:04;8.50;99.90
50570;DHT22;36525;49.398;7.614;2024-02-04T15:18:33;8.40;99.90
50570;DHT22;36525;49.398;7.614;2024-02-04T15:21:01;8.50;99.90
50570;DHT22;36525;49.398;7.614;2024-02-04T15:23:29;8.40;99.90
50570;DHT22;36525;49.398;7.614;2024-02-04T15:25:56;8.40;99.90
50570;DHT22;36525;49.398;7.614;2024-02-04T15:28:24;8.50;99.90
50570;DHT22;36525;49.398;7.614;2024-02-04T15:30:51;8.40;99.90
50570;DHT22;36525;49.398;7.614;2024-02-04T15:33:18;8.40;99.90
50570;DHT22;36525;49.398;7.614;2024-02-04T15:35:46;8.40;99.90
50570;DHT22;36525;49.398;7.614;2024-02-04T15:38:13;8.40;99.90
50570;DHT22;36525;49.398;7.614;2024-02-04T15:40:44;8.40;99.90
50570;DHT22;36525;49.398;7.614;2024-02-04T15:43:11;8.40;99.90
50570;DHT22;36525;49.398;7.614;2024-02-04T15:45:38;8.40;99.90
50570;DHT22;36525;49.398;7.614;2024-02-04T15:48:05;8.40;99.90
50570;DHT22;36525;49.398;7.614;2024-02-04T15:50:33;8.30;99.90
50570;DHT22;36525;49.398;7.614;2024-02-04T15:53:04;8.40;99.90
50570;DHT22;36525;49.398;7.614;2024-02-04T15:55:32;8.30;99.90
50570;DHT22;36525;49.398;7.614;2024-02-04T15:57:59;8.30;99.90
50570;DHT22;36525;49.398;7.614;2024-02-04T16:00:26;8.30;99.90
50570;DHT22;36525;49.398;7.614;2024-02-04T16:02:54;8.20;99.90
50570;DHT22;36525;49.398;7.614;2024-02-04T16:05:22;8.30;99.90
50570;DHT22;36525;49.398;7.614;2024-02-04T16:07:50;8.20;99.90